Time;durP1;ratioP1;P1;durP2;ratioP2;P2;SDS_P1;SDS_P2;PMS_P1;PMS_P2;Temp;Humidity;BMP_temperature;BMP_pressure;BME280_temperature;BME280_humidity;BME280_pressure;Samples;Min_cycle;Max_cycle;Signal;HPM_P1;HPM_P2
2021/11/14 00:00:56;;;;;;;18.40;11.18;;;8.20;80.40;;;7.49;66.34;94954.88;4942940;28;20198;-88
2021/11/14 00:03:26;;;;;;;22.98;11.50;;;8.20;80.40;;;7.49;65.91;94956.69;4943036;28;20595;-88
2021/11/14 00:05:53;;;;;;;34.83;11.73;;;8.20;80.40;;;7.47;66.14;94954.25;4942975;28;20199;-87
2021/11/14 00:08:23;;;;;;;20.55;11.85;;;8.20;80.40;;;7.50;66.14;94961.72;4942726;28;20253;-88
2021/11/14 00:10:57;;;;;;;23.33;11.38;;;8.20;80.40;;;7.49;66.21;94962.69;4942272;28;20235;-88
2021/11/14 00:13:25;;;;;;;21.73;11.38;;;8.20;80.40;;;7.49;66.36;94960.09;4942337;28;20289;-87
2021/11/14 00:15:53;;;;;;;18.88;11.40;;;8.20;80.40;;;7.49;66.39;94972.34;4927250;28;20286;-88
2021/11/14 00:18:21;;;;;;;20.20;12.68;;;8.20;80.40;;;7.43;66.30;94955.56;4941223;28;20231;-87
2021/11/14 00:20:49;;;;;;;30.48;12.52;;;8.20;80.30;;;7.49;65.97;94964.50;4927104;28;20221;-87
2021/11/14 00:23:16;;;;;;;25.35;12.63;;;8.20;80.30;;;7.44;66.07;94956.38;4942614;28;20245;-88
2021/11/14 00:25:44;;;;;;;22.23;12.07;;;8.20;80.30;;;7.47;66.33;94963.84;4942351;28;20229;-88
2021/11/14 00:28:11;;;;;;;26.00;11.93;;;8.30;80.30;;;7.42;66.19;94956.56;4942552;28;20224;-88
2021/11/14 00:30:45;;;;;;;22.58;11.60;;;8.20;80.40;;;7.44;66.12;94954.56;4943528;28;20728;-88
2021/11/14 00:33:12;;;;;;;39.63;12.65;;;8.10;80.30;;;7.45;66.31;94966.66;4942179;28;20203;-87
2021/11/14 00:35:41;;;;;;;28.20;13.00;;;8.10;80.30;;;7.39;65.99;94961.31;4926670;28;20199;-87
2021/11/14 00:38:09;;;;;;;35.17;12.88;;;8.10;80.30;;;7.43;66.09;94965.19;4942075;28;20202;-88
2021/11/14 00:40:40;;;;;;;31.95;12.65;;;8.10;80.30;;;7.42;66.15;94968.78;4942122;28;20199;-88
2021/11/14 00:43:08;;;;;;;46.33;13.63;;;8.10;80.30;;;7.40;66.17;94971.56;4942198;28;20701;-88
2021/11/14 00:45:37;;;;;;;37.35;13.00;;;8.10;80.30;;;7.36;66.01;94971.09;4941887;28;20210;-87
2021/11/14 00:48:06;;;;;;;62.40;13.70;;;8.10;80.30;;;7.39;66.30;94992.63;4941880;28;20409;-87
2021/11/14 00:50:38;;;;;;;42.58;13.43;;;8.10;80.30;;;7.32;66.16;94969.81;4942610;28;20227;-87
2021/11/14 00:53:06;;;;;;;30.83;13.00;;;8.00;80.20;;;7.34;66.10;94974.88;4927063;28;20194;-88
2021/11/14 00:55:35;;;;;;;33.80;12.20;;;8.00;80.20;;;7.36;66.18;94978.09;4926493;28;20707;-88
2021/11/14 00:58:02;;;;;;;22.45;11.68;;;8.10;80.30;;;7.34;66.31;94980.88;4941776;28;20202;-88
2021/11/14 01:00:32;;;;;;;43.88;11.93;;;8.00;80.30;;;7.34;66.21;94972.25;4941995;28;20298;-88
2021/11/14 01:03:01;;;;;;;41.33;11.95;;;8.00;80.40;;;7.36;66.32;94978.94;4941753;28;20273;-87
2021/11/14 01:05:32;;;;;;;25.70;11.48;;;8.00;80.40;;;7.35;66.40;94976.50;4942000;28;20261;-87
2021/11/14 01:08:00;;;;;;;22.17;11.43;;;8.00;80.30;;;7.34;66.04;94977.47;4941297;28;20321;-87
2021/11/14 01:10:34;;;;;;;22.10;11.48;;;8.00;80.30;;;7.34;66.40;94978.28;4926363;28;20552;-87
2021/11/14 01:13:01;;;;;;;25.77;10.90;;;8.00;80.40;;;7.34;66.42;94973.06;4941759;28;20205;-87
2021/11/14 01:15:30;;;;;;;21.15;11.15;;;8.00;80.40;;;7.30;66.29;94974.38;4925629;28;20289;-87
2021/11/14 01:17:58;;;;;;;18.98;11.35;;;8.00;80.40;;;7.34;66.47;94980.88;4941114;28;20210;-87
2021/11/14 01:20:32;;;;;;;20.27;12.40;;;8.10;80.50;;;7.32;66.25;94980.25;4942215;28;20195;-88
2021/11/14 01:23:02;;;;;;;20.58;12.63;;;8.00;81.30;;;7.32;65.84;94976.81;4941473;28;20507;-88
2021/11/14 01:25:29;;;;;;;16.67;11.25;;;8.00;81.20;;;7.30;66.10;94979.59;4941830;28;20265;-88
2021/11/14 01:27:57;;;;;;;17.33;11.65;;;8.00;80.40;;;7.29;66.30;94980.59;4951821;29;20227;-87
2021/11/14 01:30:30;;;;;;;17.38;11.55;;;8.00;80.30;;;7.32;66.03;94980.25;4925768;28;20285;-88
2021/11/14 01:33:01;;;;;;;16.77;12.20;;;8.10;80.40;;;7.28;66.28;94972.94;4941619;28;20542;-87
2021/11/14 01:35:29;;;;;;;16.30;11.23;;;8.00;80.30;;;7.31;66.30;94989.06;4941866;28;20199;-88
2021/11/14 01:37:57;;;;;;;16.23;11.10;;;8.00;80.30;;;7.31;66.33;94973.41;4924278;28;20221;-88
2021/11/14 01:40:31;;;;;;;15.93;10.90;;;8.00;80.30;;;7.32;66.12;94976.81;4941550;28;20209;-88
2021/11/14 01:43:00;;;;;;;16.60;11.32;;;8.10;80.40;;;7.32;66.30;94980.25;4941691;28;20194;-87
2021/11/14 01:45:27;;;;;;;18.40;11.02;;;8.00;80.40;;;7.32;66.27;94977.66;4941574;28;20595;-87
2021/11/14 01:47:55;;;;;;;17.65;10.88;;;8.00;80.40;;;7.29;66.39;94967.53;4941601;28;20222;-88
2021/11/14 01:50:23;;;;;;;15.13;10.98;;;8.00;80.40;;;7.31;66.36;94973.41;4940573;28;20245;-88
2021/11/14 01:52:53;;;;;;;21.17;10.80;;;8.00;80.40;;;7.31;66.30;94976.03;4941577;28;20211;-88
2021/11/14 01:55:26;;;;;;;15.15;10.90;;;8.00;80.40;;;7.33;66.40;94986.28;4941765;28;20226;-88
2021/11/14 01:57:55;;;;;;;14.50;10.88;;;8.00;80.40;;;7.29;66.19;94991.03;4944606;28;20195;-87
2021/11/14 02:00:28;;;;;;;16.08;10.88;;;8.00;80.30;;;7.27;66.10;94987.75;4945585;28;20246;-88
2021/11/14 02:02:56;;;;;;;15.13;10.82;;;8.00;80.30;;;7.26;66.29;94986.13;4929608;28;20195;-87
2021/11/14 02:05:26;;;;;;;17.38;11.38;;;8.00;80.30;;;7.27;66.21;94995.59;4929602;28;20233;-88
2021/11/14 02:07:58;;;;;;;15.77;11.63;;;8.00;80.30;;;7.28;66.26;94997.22;4928383;28;20242;-87
2021/11/14 02:10:28;;;;;;;15.60;10.90;;;8.00;80.30;;;7.24;66.25;94987.28;4945068;28;20608;-88
2021/11/14 02:12:58;;;;;;;15.57;11.30;;;8.00;80.30;;;7.28;66.06;94994.59;4944825;28;20195;-88
2021/11/14 02:15:25;;;;;;;15.20;11.07;;;8.00;80.40;;;7.26;66.20;94998.38;4944917;28;20202;-88
2021/11/14 02:17:53;;;;;;;15.70;11.63;;;7.90;80.30;;;7.23;66.23;94991.69;4944293;28;20202;-88
2021/11/14 02:20:21;;;;;;;14.45;10.70;;;8.00;80.40;;;7.25;66.30;94992.34;4944951;28;20273;-87
2021/11/14 02:22:49;;;;;;;16.98;10.93;;;7.90;80.30;;;7.28;66.22;94999.81;4944725;28;20202;-88
2021/11/14 02:25:18;;;;;;;16.02;11.07;;;8.00;80.40;;;7.23;66.33;94991.69;4925509;29;20220;-88
2021/11/14 02:27:49;;;;;;;16.45;10.85;;;8.00;80.40;;;7.28;66.11;95004.25;4941000;29;20606;-87
2021/11/14 02:30:18;;;;;;;16.30;11.38;;;8.00;80.30;;;7.21;66.52;95004.91;4940839;29;20701;-87
2021/11/14 02:32:47;;;;;;;15.95;11.00;;;7.90;80.30;;;7.27;66.33;95015.66;4942821;28;20289;-87
2021/11/14 02:35:35;;;;;;;14.77;10.75;;;8.00;80.30;;;7.22;66.24;95009.13;4943246;28;20206;-87
2021/11/14 02:38:03;;;;;;;15.63;11.45;;;8.00;80.30;;;7.26;66.35;95003.59;4943811;28;20301;-87
2021/11/14 02:40:31;;;;;;;16.52;10.68;;;8.00;80.40;;;7.27;66.46;95020.88;4941636;28;20265;-88
2021/11/14 02:42:58;;;;;;;15.52;10.63;;;8.00;80.40;;;7.24;66.13;95010.75;4956578;28;20239;-86
2021/11/14 02:45:28;;;;;;;14.07;10.07;;;8.00;80.40;;;7.28;66.45;95033.75;4960352;28;20319;-85
2021/11/14 02:47:57;;;;;;;14.07;10.05;;;8.00;80.40;;;7.27;66.41;95016.47;4940739;29;20302;-86
2021/11/14 02:50:26;;;;;;;12.75;9.02;;;7.90;80.30;;;7.23;66.32;95015.19;4963484;28;20208;-86
2021/11/14 02:52:54;;;;;;;12.98;9.00;;;8.00;80.30;;;7.25;66.07;95026.25;4940739;28;20285;-86
2021/11/14 02:55:24;;;;;;;12.68;9.13;;;8.00;80.30;;;7.25;66.34;95028.88;4948263;28;20233;-87
2021/11/14 02:57:53;;;;;;;13.05;9.48;;;8.00;80.30;;;7.18;66.29;95018.28;4951909;28;20203;-87
2021/11/14 03:00:42;;;;;;;13.82;9.30;;;7.90;80.20;;;7.21;66.21;95027.56;4925870;29;20278;-87
2021/11/14 03:03:09;;;;;;;13.35;9.18;;;7.90;80.30;;;7.22;66.17;95035.22;4949638;28;20200;-87
2021/11/14 03:05:39;;;;;;;12.57;9.57;;;8.00;80.30;;;7.21;66.28;95025.78;4949719;28;20195;-87
2021/11/14 03:08:06;;;;;;;13.77;9.57;;;8.00;80.30;;;7.18;66.46;95012.28;4939428;28;20222;-87
2021/11/14 03:10:34;;;;;;;14.68;9.80;;;7.90;80.30;;;7.21;66.13;95025.78;4967064;28;20298;-87
2021/11/14 03:13:16;;;;;;;15.02;9.48;;;7.90;80.30;;;7.19;66.17;95026.94;4943586;28;20221;-87
2021/11/14 03:15:51;;;;;;;13.38;9.25;;;7.90;80.30;;;7.19;66.26;95025.13;4941569;28;20645;-87
2021/11/14 03:18:19;;;;;;;12.40;9.60;;;7.90;80.40;;;7.17;66.55;95024.47;4935085;28;20239;-87
2021/11/14 03:20:50;;;;;;;14.65;10.43;;;7.90;80.40;;;7.21;66.31;95022.34;4942090;28;20234;-86
2021/11/14 03:23:19;;;;;;;16.08;10.27;;;7.90;80.40;;;7.22;66.36;95029.19;4943766;28;20320;-87
2021/11/14 03:25:47;;;;;;;15.35;9.90;;;7.90;80.40;;;7.21;66.50;95027.56;4941478;28;20210;-87
2021/11/14 03:28:15;;;;;;;15.43;10.32;;;7.90;80.30;;;7.17;66.19;95023.69;4915008;28;20229;-87
2021/11/14 03:30:43;;;;;;;15.00;10.35;;;7.90;80.40;;;7.21;66.09;95028.41;4935624;28;21351;-87
2021/11/14 03:33:13;;;;;;;15.13;10.02;;;7.90;80.40;;;7.22;66.46;95029.19;4951195;28;20199;-87
2021/11/14 03:35:59;;;;;;;14.80;9.98;;;7.90;80.40;;;7.23;66.31;95028.22;4942812;28;20202;-87
2021/11/14 03:38:33;;;;;;;15.43;10.38;;;7.90;80.40;;;7.22;66.26;95034.41;4943054;28;20230;-87
2021/11/14 03:41:03;;;;;;;14.93;10.35;;;7.90;80.40;;;7.17;66.09;95029.69;4940237;28;20517;-88
2021/11/14 03:43:34;;;;;;;17.35;10.20;;;7.90;80.40;;;7.22;66.49;95042.25;4941197;28;20233;-87
2021/11/14 03:46:03;;;;;;;14.82;10.02;;;7.90;80.40;;;7.21;66.36;95041.44;4937800;29;20669;-88
2021/11/14 03:48:33;;;;;;;15.55;10.02;;;7.90;80.40;;;7.17;66.47;95039.31;4938093;28;20241;-88
2021/11/14 03:51:00;;;;;;;20.30;10.73;;;7.90;80.50;;;7.17;66.38;95042.75;4938650;29;20187;-88
2021/11/14 03:53:27;;;;;;;14.27;10.30;;;7.90;80.50;;;7.20;66.18;95045.03;4942370;28;20222;-87
2021/11/14 03:55:55;;;;;;;17.48;10.52;;;7.90;80.40;;;7.21;66.49;95035.38;4957362;28;20191;-87
2021/11/14 03:58:23;;;;;;;15.52;10.68;;;7.90;80.50;;;7.20;66.17;95045.03;4942137;28;20309;-87
2021/11/14 04:01:00;;;;;;;14.13;10.23;;;7.90;80.40;;;7.19;66.73;95047.81;4942541;28;20217;-87
2021/11/14 04:03:29;;;;;;;20.20;10.43;;;7.90;80.50;;;7.18;66.46;95052.19;4959248;28;20219;-87
2021/11/14 04:05:57;;;;;;;19.42;9.98;;;7.90;80.50;;;7.18;66.21;95060.03;4923840;29;20240;-87
2021/11/14 04:08:26;;;;;;;16.23;10.18;;;7.90;80.50;;;7.15;66.25;95049.09;4940044;29;20321;-87
2021/11/14 04:11:02;;;;;;;18.33;10.70;;;7.90;80.50;;;7.18;66.53;95051.41;4939932;28;20646;-86
2021/11/14 04:13:30;;;;;;;15.73;9.25;;;7.90;80.60;;;7.17;66.52;95050.56;4964105;28;20269;-87
2021/11/14 04:15:59;;;;;;;16.88;9.90;;;7.90;80.50;;;7.15;66.55;95052.53;4942365;28;20246;-88
2021/11/14 04:18:28;;;;;;;20.13;10.25;;;8.00;80.60;;;7.14;66.60;95053.53;4942437;28;20686;-87
2021/11/14 04:20:56;;;;;;;17.98;10.32;;;7.90;80.50;;;7.15;66.41;95062.97;4943160;28;20237;-87
2021/11/14 04:23:24;;;;;;;18.20;10.23;;;7.90;80.50;;;7.13;66.45;95070.16;4941843;28;20247;-88
2021/11/14 04:25:52;;;;;;;15.27;10.15;;;7.80;80.40;;;7.11;66.47;95063.47;4939245;29;20231;-88
2021/11/14 04:28:21;;;;;;;16.35;9.95;;;7.80;80.40;;;7.10;66.44;95067.84;4955585;28;20243;-87
2021/11/14 04:30:51;;;;;;;16.67;9.82;;;7.90;80.50;;;7.10;66.59;95075.69;4939700;29;20298;-87
2021/11/14 04:33:20;;;;;;;16.55;10.52;;;7.80;80.50;;;7.09;66.50;95081.06;4950119;28;20227;-87
2021/11/14 04:35:48;;;;;;;15.95;10.27;;;7.80;80.50;;;7.09;66.38;95083.69;4957992;28;20290;-87
2021/11/14 04:38:16;;;;;;;14.85;9.93;;;7.80;80.50;;;7.09;66.42;95083.69;4939289;28;20597;-88
2021/11/14 04:40:47;;;;;;;17.15;9.43;;;7.80;80.40;;;7.03;66.55;95078.16;4923863;28;20614;-87
2021/11/14 04:43:17;;;;;;;15.00;10.25;;;7.80;80.60;;;7.04;66.51;95076.34;4942204;28;20201;-88
2021/11/14 04:45:48;;;;;;;14.30;9.70;;;7.80;80.50;;;7.06;66.44;95082.22;4942246;28;20210;-87
2021/11/14 04:48:16;;;;;;;12.68;9.25;;;7.80;80.60;;;7.08;66.37;95097.69;4938887;28;20227;-87
2021/11/14 04:50:43;;;;;;;15.02;9.98;;;7.90;80.70;;;7.05;66.59;95102.28;4967132;28;20214;-87
2021/11/14 04:53:11;;;;;;;14.55;9.95;;;7.80;80.60;;;7.07;66.42;95096.91;4957917;28;20277;-87
2021/11/14 04:55:40;;;;;;;14.75;10.05;;;7.80;80.60;;;7.04;66.64;95094.59;4942217;28;20194;-87
2021/11/14 04:58:10;;;;;;;15.73;9.75;;;7.80;80.70;;;7.05;66.48;95106.66;4925952;28;20700;-87
2021/11/14 05:00:45;;;;;;;17.70;10.02;;;7.80;80.70;;;7.06;66.06;95100.47;4942075;28;20590;-87
2021/11/14 05:03:13;;;;;;;12.70;9.35;;;7.80;80.60;;;7.03;66.53;95101.63;4942079;28;20297;-87
2021/11/14 05:05:41;;;;;;;13.25;9.38;;;7.80;80.60;;;7.07;66.70;95103.88;4941156;28;20277;-87
2021/11/14 05:08:10;;;;;;;13.98;9.13;;;7.80;80.70;;;7.08;66.56;95097.69;4940551;28;20226;-86
2021/11/14 05:10:39;;;;;;;14.80;9.82;;;7.80;80.70;;;7.08;66.50;95105.53;4938209;28;20201;-87
2021/11/14 05:13:06;;;;;;;15.70;9.68;;;7.80;80.60;;;7.08;66.65;95108.13;4932835;28;20203;-87
2021/11/14 05:15:35;;;;;;;14.88;9.43;;;7.70;80.60;;;7.08;66.66;95111.56;4937135;28;20661;-87
2021/11/14 05:18:03;;;;;;;15.13;9.70;;;7.80;80.70;;;7.05;66.38;95109.28;4942512;28;20233;-87
2021/11/14 05:20:34;;;;;;;14.43;10.15;;;7.80;80.70;;;7.08;66.72;95118.56;4940906;28;20222;-88
2021/11/14 05:23:03;;;;;;;16.85;10.25;;;7.80;80.70;;;7.08;66.57;95127.22;4932078;28;20199;-87
2021/11/14 05:25:31;;;;;;;21.73;11.35;;;7.70;80.60;;;7.07;66.45;95127.38;4938639;28;20207;-87
2021/11/14 05:27:58;;;;;;;17.20;10.95;;;7.80;80.60;;;7.03;66.78;95124.25;4959727;28;20242;-87
2021/11/14 05:30:26;;;;;;;16.52;11.32;;;7.80;80.60;;;7.04;66.42;95129.34;4939083;29;20204;-87
2021/11/14 05:32:53;;;;;;;22.33;11.55;;;7.80;80.60;;;6.99;66.75;95122.97;4932392;28;20194;-87
2021/11/14 05:35:20;;;;;;;19.30;11.98;;;7.80;80.60;;;7.01;66.31;95134.06;4932938;28;20231;-87
2021/11/14 05:37:47;;;;;;;23.17;13.25;;;7.80;80.60;;;6.98;66.20;95134.38;4942015;28;20520;-87
2021/11/14 05:40:15;;;;;;;38.35;15.68;;;7.80;80.60;;;6.96;66.71;95131.16;4925774;28;20210;-86
2021/11/14 05:42:42;;;;;;;35.45;14.65;;;7.70;80.50;;;6.96;66.83;95138.97;4939587;28;20207;-85
2021/11/14 05:45:09;;;;;;;39.45;16.75;;;7.70;80.50;;;6.95;66.49;95142.53;4939481;28;20242;-86
2021/11/14 05:47:37;;;;;;;61.13;15.52;;;7.70;80.60;;;6.97;66.54;95143.19;4939529;28;20226;-87
2021/11/14 05:50:07;;;;;;;44.88;14.55;;;7.70;80.70;;;6.97;66.62;95143.19;4955476;28;20230;-86
2021/11/14 05:52:36;;;;;;;68.80;14.35;;;7.70;80.70;;;6.92;66.47;95140.25;4939881;28;20202;-87
2021/11/14 05:55:06;;;;;;;66.72;14.27;;;7.70;80.70;;;6.90;66.40;95137.81;4939040;28;20254;-87
2021/11/14 06:00:45;;;;;;;80.82;13.45;;;7.70;80.80;;;6.89;66.93;95142.19;4959157;28;20227;-87
2021/11/14 06:03:22;;;;;;;97.93;13.02;;;7.70;80.80;;;6.94;66.92;95151.34;4960361;28;20270;-86
2021/11/14 06:05:51;;;;;;;70.80;12.35;;;7.70;80.80;;;6.90;66.67;95150.84;4942922;28;20206;-87
2021/11/14 06:08:22;;;;;;;67.82;12.35;;;7.70;80.70;;;6.94;66.49;95159.16;4925479;28;20756;-86
2021/11/14 06:10:54;;;;;;;68.30;12.98;;;7.70;80.70;;;6.88;66.83;95150.19;4933022;28;20247;-86
2021/11/14 06:13:27;;;;;;;54.70;11.73;;;7.80;80.90;;;6.91;66.90;95167.31;4940731;28;20712;-86
2021/11/14 06:15:55;;;;;;;48.30;12.10;;;7.60;80.70;;;6.91;66.93;95164.69;4939857;28;20294;-86
2021/11/14 06:18:23;;;;;;;32.47;11.45;;;7.60;80.80;;;6.92;66.74;95176.75;4924736;28;20215;-87
2021/11/14 06:20:50;;;;;;;43.30;10.85;;;7.60;80.80;;;6.90;66.92;95171.72;4921339;29;20749;-87
2021/11/14 06:23:17;;;;;;;32.00;11.60;;;7.60;80.80;;;6.93;66.88;95171.38;4953191;28;20198;-87
2021/11/14 06:25:45;;;;;;;22.80;11.82;;;7.70;80.90;;;6.95;67.02;95179.06;4939594;28;20241;-87
2021/11/14 06:28:13;;;;;;;26.92;11.77;;;7.60;80.90;;;6.92;66.99;95169.78;4923565;28;20282;-86
2021/11/14 06:30:40;;;;;;;27.77;12.00;;;7.60;81.00;;;6.95;66.92;95174.63;4939103;28;20206;-86
2021/11/14 06:33:08;;;;;;;29.67;11.73;;;7.60;81.00;;;6.98;66.88;95176.09;4923568;28;20254;-86
2021/11/14 06:35:35;;;;;;;36.38;11.95;;;7.60;81.00;;;6.98;67.13;95176.94;4939560;28;20206;-86
2021/11/14 06:38:04;;;;;;;23.60;11.82;;;7.70;81.10;;;6.99;66.90;95181.16;4921341;28;20215;-85
2021/11/14 06:40:31;;;;;;;21.60;11.10;;;7.70;81.10;;;7.04;66.76;95185.88;4931243;28;20209;-85
2021/11/14 06:42:59;;;;;;;29.30;12.35;;;7.70;81.10;;;7.02;66.85;95180.03;4943244;28;20195;-85
2021/11/14 06:45:27;;;;;;;17.35;11.57;;;7.70;81.20;;;7.10;67.02;95182.63;4949988;28;20195;-84
2021/11/14 06:47:54;;;;;;;26.40;11.82;;;7.70;81.30;;;7.11;67.11;95179.03;4944535;29;20188;-85
2021/11/14 06:50:21;;;;;;;15.93;10.55;;;7.70;81.30;;;7.16;67.11;95184.56;4913011;28;20231;-84
2021/11/14 06:52:49;;;;;;;16.80;10.60;;;7.80;81.30;;;7.17;67.04;95185.41;4938235;28;20744;-84
2021/11/14 06:55:18;;;;;;;15.65;10.15;;;7.70;81.20;;;7.20;66.79;95191.13;4938435;28;20238;-84
2021/11/14 06:57:47;;;;;;;30.23;10.55;;;7.80;81.30;;;7.25;66.95;95192.41;4943572;28;20210;-83
2021/11/14 07:00:19;;;;;;;15.65;9.57;;;7.80;81.20;;;7.25;66.95;95193.25;4926451;29;20697;-85
2021/11/14 07:02:47;;;;;;;17.80;10.20;;;7.90;81.20;;;7.21;67.30;95194.53;4938978;29;20231;-85
2021/11/14 07:05:15;;;;;;;22.58;10.20;;;7.90;81.20;;;7.28;66.92;95205.94;4956965;28;20210;-85
2021/11/14 07:07:43;;;;;;;19.15;10.05;;;7.90;81.10;;;7.32;67.03;95209.03;4942137;28;20203;-85
2021/11/14 07:10:14;;;;;;;17.05;9.93;;;7.90;81.10;;;7.33;66.86;95214.09;4940179;29;20219;-84
2021/11/14 07:12:43;;;;;;;13.98;10.10;;;7.90;81.10;;;7.30;66.72;95205.75;4945644;28;20712;-85
2021/11/14 07:15:14;;;;;;;29.33;11.52;;;7.90;81.00;;;7.36;66.81;95218.16;4952911;28;20723;-84
2021/11/14 07:17:43;;;;;;;36.47;12.10;;;8.00;81.00;;;7.37;66.92;95225.00;4945400;28;20298;-84
2021/11/14 07:20:13;;;;;;;50.53;12.10;;;8.00;81.00;;;7.35;66.75;95219.97;4941844;28;20219;-86
2021/11/14 07:22:42;;;;;;;41.22;10.30;;;8.00;81.00;;;7.41;66.72;95225.50;4941412;28;20199;-86
2021/11/14 07:25:14;;;;;;;51.42;9.88;;;8.00;81.00;;;7.44;66.86;95233.00;4941837;28;20214;-85
2021/11/14 07:27:43;;;;;;;51.65;9.93;;;8.00;81.00;;;7.45;66.64;95224.22;4957630;28;20203;-86
2021/11/14 07:30:12;;;;;;;34.58;10.07;;;8.00;81.00;;;7.48;66.67;95227.31;4941997;28;20711;-86
2021/11/14 07:32:41;;;;;;;48.92;9.88;;;8.00;81.00;;;7.50;66.72;95229.75;4941516;28;20202;-85
2021/11/14 07:35:15;;;;;;;39.05;10.85;;;8.10;80.90;;;7.45;66.42;95224.22;4944639;28;20250;-86
2021/11/14 07:37:43;;;;;;;24.80;9.43;;;8.20;80.80;;;7.48;66.62;95231.69;4963182;28;20257;-86
2021/11/14 07:40:13;;;;;;;48.78;10.85;;;8.10;80.80;;;7.46;66.64;95229.25;4942516;28;20229;-86
2021/11/14 07:42:44;;;;;;;27.63;11.23;;;8.10;80.70;;;7.47;66.30;95233.50;4942870;28;20198;-86
2021/11/14 07:45:15;;;;;;;27.83;11.48;;;8.10;80.60;;;7.43;66.49;95234.78;4952457;28;20246;-85
2021/11/14 07:47:43;;;;;;;35.42;10.68;;;8.10;80.50;;;7.37;66.45;95232.84;4959116;28;20211;-85
2021/11/14 07:50:12;;;;;;;17.42;10.38;;;8.10;80.40;;;7.33;66.60;95236.75;4939942;28;20301;-85
2021/11/14 07:52:40;;;;;;;17.38;10.80;;;8.10;80.40;;;7.33;66.26;95236.75;4937966;28;20203;-85
2021/11/14 07:55:08;;;;;;;16.25;10.50;;;8.10;80.40;;;7.30;66.42;95231.84;4925403;29;20281;-85
2021/11/14 07:57:44;;;;;;;19.45;11.20;;;8.00;80.40;;;7.33;66.45;95240.16;4952808;28;20273;-85
2021/11/14 08:00:21;;;;;;;16.45;10.85;;;8.00;80.40;;;7.33;66.42;95241.97;4940256;28;20226;-84
2021/11/14 08:02:49;;;;;;;18.02;11.80;;;8.00;80.30;;;7.31;66.60;95236.09;4941752;28;20286;-86
2021/11/14 08:05:18;;;;;;;15.52;10.63;;;8.00;80.40;;;7.27;66.22;95224.38;4940665;28;20223;-84
2021/11/14 08:07:49;;;;;;;17.17;11.02;;;8.00;80.40;;;7.29;66.40;95231.06;4936749;29;20677;-85
2021/11/14 08:10:18;;;;;;;37.90;25.42;;;8.00;80.40;;;7.28;66.44;95233.84;4968099;28;20232;-85
2021/11/14 08:12:45;;;;;;;27.95;17.98;;;8.00;80.40;;;7.29;66.46;95238.09;4941419;28;20226;-86
2021/11/14 08:15:14;;;;;;;22.35;14.45;;;8.00;80.40;;;7.26;66.42;95238.38;4941021;28;20602;-85
2021/11/14 08:17:41;;;;;;;19.60;12.45;;;8.00;80.40;;;7.27;66.59;95243.44;4940156;28;20218;-84
2021/11/14 08:20:10;;;;;;;21.13;12.38;;;7.90;80.30;;;7.30;66.39;95250.13;4939030;28;20221;-86
2021/11/14 08:22:37;;;;;;;18.85;11.82;;;8.00;80.40;;;7.28;66.55;95250.28;4941583;28;20261;-86
2021/11/14 08:25:07;;;;;;;23.33;12.95;;;8.00;80.40;;;7.33;66.27;95260.25;4941808;28;20227;-85
2021/11/14 08:27:35;;;;;;;24.67;13.73;;;8.00;80.50;;;7.33;66.42;95255.03;4938984;29;20199;-86
2021/11/14 08:30:09;;;;;;;30.33;17.80;;;8.00;80.40;;;7.33;66.52;95260.25;4955087;28;20318;-85
2021/11/14 08:32:37;;;;;;;28.77;16.02;;;8.00;80.40;;;7.33;66.19;95260.25;4941305;28;20203;-83
2021/11/14 08:35:05;;;;;;;28.58;15.00;;;8.00;80.40;;;7.32;66.12;95263.81;4939209;28;20297;-84
2021/11/14 08:37:33;;;;;;;27.48;15.50;;;7.90;80.30;;;7.34;66.50;95261.88;4949294;28;20230;-85
2021/11/14 08:40:04;;;;;;;28.45;15.98;;;8.00;80.50;;;7.35;66.42;95269.53;4940275;28;20743;-84
2021/11/14 08:42:31;;;;;;;24.80;15.07;;;8.00;80.50;;;7.36;66.18;95267.72;4956085;28;20203;-86
2021/11/14 08:44:58;;;;;;;26.10;14.98;;;8.00;80.50;;;7.37;66.30;95272.81;4955079;28;20238;-86
2021/11/14 08:47:25;;;;;;;32.30;14.68;;;8.00;80.40;;;7.42;66.20;95274.94;4941312;28;20230;-86
2021/11/14 08:49:52;;;;;;;24.67;15.85;;;8.00;80.60;;;7.45;66.58;95284.22;4950521;28;20308;-86
2021/11/14 08:52:20;;;;;;;23.80;13.80;;;8.00;80.60;;;7.52;66.28;95285.22;4974075;28;20214;-86
2021/11/14 08:54:47;;;;;;;27.05;14.13;;;8.10;80.70;;;7.55;66.46;95279.66;4940991;29;20231;-87
2021/11/14 08:57:18;;;;;;;29.52;14.15;;;8.10;80.70;;;7.57;66.54;95271.66;4954801;28;20203;-87
2021/11/14 08:59:46;;;;;;;23.80;13.02;;;8.10;80.70;;;7.64;66.27;95283.91;4938158;29;20219;-86
2021/11/14 09:02:15;;;;;;;27.80;13.52;;;8.10;80.70;;;7.68;66.26;95282.56;4962868;28;20672;-85
2021/11/14 09:04:43;;;;;;;32.08;16.90;;;8.20;80.80;;;7.71;66.08;95289.25;4942013;28;20224;-86
2021/11/14 09:07:11;;;;;;;28.98;16.08;;;8.20;80.70;;;7.70;66.41;95282.41;4925727;28;20615;-86
2021/11/14 09:09:38;;;;;;;23.83;13.65;;;8.20;80.70;;;7.79;66.19;95288.47;4946773;28;20258;-86
2021/11/14 09:12:06;;;;;;;30.55;14.25;;;8.40;80.90;;;7.84;66.28;95296.59;4941453;28;20191;-86
2021/11/14 09:14:33;;;;;;;33.45;13.73;;;8.30;80.80;;;7.84;66.26;95297.41;4941235;28;20795;-85
2021/11/14 09:17:01;;;;;;;23.45;13.10;;;8.40;80.80;;;7.84;66.00;95299.22;4941968;28;20190;-86
2021/11/14 09:19:28;;;;;;;25.92;13.20;;;8.40;80.70;;;7.85;66.18;95296.44;4941464;28;20219;-87
2021/11/14 09:21:55;;;;;;;23.48;13.25;;;8.40;80.70;;;7.93;66.15;95303.44;4942726;28;20682;-86
2021/11/14 09:24:23;;;;;;;23.45;12.55;;;8.40;80.60;;;7.95;66.14;95292.84;4941530;28;20210;-86
2021/11/14 09:26:51;;;;;;;25.50;14.10;;;8.50;80.70;;;7.98;66.16;95292.50;4941036;28;20546;-85
2021/11/14 09:29:19;;;;;;;25.30;14.10;;;8.50;80.60;;;8.02;66.34;95299.03;4945709;28;20226;-86
2021/11/14 09:31:46;;;;;;;26.25;14.88;;;8.50;80.70;;;8.07;65.94;95303.75;4938071;28;20680;-87
2021/11/14 09:34:13;;;;;;;24.73;13.02;;;8.60;80.70;;;8.09;65.97;95300.00;4938639;28;20277;-88
2021/11/14 09:36:41;;;;;;;26.45;13.93;;;8.60;81.40;;;8.10;66.03;95292.97;4939441;28;20661;-87
2021/11/14 09:39:12;;;;;;;23.55;14.38;;;8.60;80.60;;;8.17;65.94;95301.78;4956483;28;20301;-86
2021/11/14 09:41:46;;;;;;;25.17;13.48;;;8.60;80.40;;;8.12;65.90;95291.81;4957067;28;20190;-87
2021/11/14 09:44:15;;;;;;;21.90;12.32;;;8.70;80.40;;;8.21;65.68;95297.03;4957798;28;20210;-88
2021/11/14 09:46:56;;;;;;;25.80;13.70;;;8.70;80.40;;;8.21;65.95;95297.03;4940976;28;20657;-87
2021/11/14 09:49:27;;;;;;;23.42;13.05;;;8.70;80.20;;;8.23;65.93;95298.50;4955882;28;20712;-87
2021/11/14 09:51:56;;;;;;;25.58;13.75;;;8.80;80.40;;;8.23;65.73;95293.25;4923666;28;20261;-86
2021/11/14 09:54:27;;;;;;;22.75;12.68;;;8.80;80.40;;;8.25;65.78;95299.16;4936885;29;20231;-87
2021/11/14 09:56:56;;;;;;;27.25;14.07;;;8.80;80.30;;;8.27;65.77;95301.59;4953935;28;20646;-87
2021/11/14 09:59:24;;;;;;;24.40;14.10;;;8.80;80.30;;;8.29;65.92;95299.63;4951786;28;20304;-87
2021/11/14 10:01:53;;;;;;;24.67;13.88;;;8.80;80.40;;;8.32;65.72;95292.28;4941729;28;20218;-87
2021/11/14 10:04:22;;;;;;;24.92;13.82;;;8.90;80.40;;;8.34;65.74;95289.47;4941392;28;20222;-87
2021/11/14 10:07:06;;;;;;;26.70;13.98;;;8.80;80.40;;;8.36;65.61;95294.53;4941505;28;20218;-86
2021/11/14 10:09:44;;;;;;;23.90;13.88;;;8.90;80.30;;;8.41;65.80;95297.44;4940535;28;20226;-87
2021/11/14 10:12:23;;;;;;;25.75;14.35;;;8.90;80.40;;;8.40;65.63;95291.41;4941712;28;20194;-87
2021/11/14 10:15:12;;;;;;;24.55;14.25;;;8.90;80.30;;;8.44;65.60;95292.69;4941599;28;20569;-87
2021/11/14 10:17:52;;;;;;;25.98;15.48;;;8.90;80.10;;;8.45;65.47;95299.56;4958125;28;20203;-87
2021/11/14 10:20:28;;;;;;;26.38;14.98;;;9.00;80.20;;;8.47;65.71;95302.88;4944546;28;20281;-86
2021/11/14 10:23:12;;;;;;;22.40;13.73;;;9.00;80.20;;;8.48;65.61;95299.28;4944846;28;20202;-86
2021/11/14 10:25:45;;;;;;;28.50;17.42;;;9.00;80.20;;;8.52;65.56;95301.53;4944321;28;20665;-87
2021/11/14 10:28:12;;;;;;;27.83;16.52;;;9.00;80.20;;;8.53;65.54;95290.91;4960460;28;20473;-87
2021/11/14 10:30:46;;;;;;;29.00;16.75;;;9.10;80.30;;;8.59;65.81;95292.03;4944600;28;20687;-87
2021/11/14 10:33:18;;;;;;;29.45;18.90;;;9.10;80.30;;;8.67;65.67;95289.38;4944721;28;20206;-86